createdAt,value
2023-04-04T00:01:45.643Z,21.76
2023-04-04T00:06:47.786Z,21.51
2023-04-04T00:11:49.222Z,21.46
2023-04-04T00:16:50.594Z,21.54
2023-04-04T00:21:51.988Z,21.63
2023-04-04T00:26:53.598Z,21.73
2023-04-04T00:31:55.324Z,21.85
2023-04-04T00:36:56.762Z,21.64
2023-04-04T00:41:58.218Z,21.85
2023-04-04T00:46:59.592Z,21.63
2023-04-04T00:52:00.970Z,21.97
2023-04-04T00:57:03.013Z,21.88
2023-04-04T01:02:04.436Z,21.68
2023-04-04T01:07:05.810Z,21.74
2023-04-04T01:12:07.270Z,21.58
2023-04-04T01:17:08.655Z,21.63
2023-04-04T01:22:10.285Z,21.89
2023-04-04T01:27:11.656Z,21.94
2023-04-04T01:32:14.023Z,21.73
2023-04-04T01:37:38.200Z,21.63
2023-04-04T01:42:39.918Z,21.77
2023-04-04T01:47:41.429Z,21.89
2023-04-04T01:52:42.875Z,21.93
2023-04-04T01:57:44.250Z,21.92
2023-04-04T02:02:45.912Z,21.65
2023-04-04T02:07:51.140Z,21.86
2023-04-04T02:12:53.168Z,21.98
2023-04-04T02:17:54.608Z,22.18
2023-04-04T02:22:56.125Z,22.07
2023-04-04T02:27:57.530Z,22.06
2023-04-04T02:32:59.785Z,21.81
2023-04-04T02:38:01.615Z,21.76
2023-04-04T02:43:02.984Z,21.79
2023-04-04T02:48:04.583Z,22.00
2023-04-04T02:53:06.025Z,21.90
2023-04-04T02:58:07.398Z,21.72
2023-04-04T03:03:08.986Z,21.89
2023-04-04T03:08:10.778Z,21.93
2023-04-04T03:13:12.293Z,22.06
2023-04-04T03:18:13.667Z,22.14
2023-04-04T03:23:15.075Z,22.00
2023-04-04T03:28:16.834Z,21.90
2023-04-04T03:33:19.253Z,21.85
2023-04-04T03:38:20.626Z,21.92
2023-04-04T03:43:21.997Z,21.92
2023-04-04T03:48:23.422Z,21.97
2023-04-04T03:53:25.589Z,21.66
2023-04-04T03:58:28.804Z,21.90
2023-04-04T04:03:30.521Z,22.06
2023-04-04T04:08:32.101Z,22.08
2023-04-04T04:13:38.604Z,22.25
2023-04-04T04:18:40.059Z,21.88
2023-04-04T04:23:41.426Z,21.96
2023-04-04T04:28:42.812Z,22.13
2023-04-04T04:33:44.200Z,22.12
2023-04-04T04:38:45.575Z,22.03
2023-04-04T04:43:49.914Z,21.88
2023-04-04T04:48:51.557Z,22.08
2023-04-04T04:53:52.983Z,21.88
2023-04-04T04:58:54.543Z,22.04
2023-04-04T05:03:55.988Z,21.94
2023-04-04T05:08:57.619Z,22.04
2023-04-04T05:13:59.085Z,21.70
2023-04-04T05:19:00.486Z,21.53
2023-04-04T05:24:02.680Z,21.84
2023-04-04T05:29:04.102Z,22.07
2023-04-04T05:34:08.345Z,21.48
2023-04-04T05:39:09.904Z,21.63
2023-04-04T05:44:11.432Z,21.60
2023-04-04T05:49:12.830Z,21.86
2023-04-04T05:54:14.197Z,21.78
2023-04-04T05:59:16.381Z,21.58
2023-04-04T06:04:17.852Z,21.52
2023-04-04T06:09:19.225Z,21.74
2023-04-04T06:14:20.760Z,21.72
2023-04-04T06:19:22.135Z,21.82
2023-04-04T06:24:23.606Z,21.50
2023-04-04T06:29:26.046Z,21.47
2023-04-04T06:34:27.440Z,21.29
2023-04-04T06:39:29.711Z,21.45
2023-04-04T06:44:31.172Z,21.69
2023-04-04T06:49:33.326Z,21.50
2023-04-04T06:54:35.711Z,21.09
2023-04-04T06:59:37.131Z,21.22
2023-04-04T07:04:39.625Z,21.37
2023-04-04T07:09:41.103Z,21.39
2023-04-04T07:14:42.601Z,21.38
2023-04-04T07:19:44.107Z,21.41
2023-04-04T07:24:45.653Z,21.00
2023-04-04T07:29:47.371Z,20.86
2023-04-04T07:34:49.536Z,20.94
2023-04-04T07:39:51.047Z,21.07
2023-04-04T07:44:52.525Z,20.69
2023-04-04T07:49:53.926Z,20.45
2023-04-04T07:54:55.301Z,20.30
2023-04-04T07:59:56.681Z,20.21
2023-04-04T08:04:58.083Z,20.39
2023-04-04T08:09:59.462Z,20.35
2023-04-04T08:15:01.866Z,20.21
2023-04-04T08:20:04.016Z,19.79
2023-04-04T08:25:05.742Z,19.70
2023-04-04T08:30:09.111Z,19.61
2023-04-04T08:35:10.594Z,19.49
2023-04-04T08:40:12.475Z,19.39
2023-04-04T08:45:17.013Z,18.96
2023-04-04T08:50:18.541Z,18.97
2023-04-04T08:55:20.729Z,18.65
2023-04-04T09:00:22.730Z,18.72
2023-04-04T09:05:25.491Z,18.71
2023-04-04T09:10:26.923Z,18.48
2023-04-04T09:15:28.365Z,18.08
2023-04-04T09:20:42.973Z,18.24
2023-04-04T09:26:02.604Z,18.49
2023-04-04T09:31:07.766Z,18.42
2023-04-04T09:36:13.282Z,18.20
2023-04-04T09:41:15.080Z,18.16
2023-04-04T09:46:19.265Z,18.09
2023-04-04T09:51:20.794Z,18.23
2023-04-04T09:56:22.357Z,18.23
2023-04-04T10:01:23.853Z,18.11
2023-04-04T10:06:25.469Z,17.93
2023-04-04T10:11:33.932Z,17.48
2023-04-04T10:16:37.566Z,17.73
2023-04-04T10:21:38.998Z,17.66
2023-04-04T10:26:40.501Z,17.87
2023-04-04T10:31:42.961Z,17.84
2023-04-04T10:36:51.746Z,17.26
2023-04-04T10:41:53.280Z,17.39
2023-04-04T10:46:54.851Z,17.43
2023-04-04T10:51:57.423Z,17.24
2023-04-04T10:57:01.986Z,17.66
2023-04-04T11:02:03.464Z,17.37
2023-04-04T11:07:16.957Z,17.27
2023-04-04T11:12:23.871Z,17.26
2023-04-04T11:17:44.672Z,17.31
2023-04-04T11:22:46.068Z,17.41
2023-04-04T11:27:48.617Z,17.31
2023-04-04T11:33:03.867Z,17.32
2023-04-04T11:38:14.644Z,17.29
2023-04-04T11:43:16.948Z,17.07
2023-04-04T11:48:18.931Z,17.25
2023-04-04T11:53:20.545Z,17.43
2023-04-04T11:58:21.935Z,16.91
2023-04-04T12:03:23.704Z,16.92
2023-04-04T12:08:25.198Z,17.11
2023-04-04T12:13:30.951Z,17.06
2023-04-04T12:18:32.664Z,17.37
2023-04-04T12:23:34.556Z,17.41
2023-04-04T12:28:37.995Z,16.66
2023-04-04T12:33:42.382Z,16.90
2023-04-04T12:38:58.215Z,16.90
2023-04-04T12:44:07.525Z,17.08
2023-04-04T12:49:11.735Z,17.05
2023-04-04T12:54:27.895Z,17.05
2023-04-04T12:59:30.148Z,16.95
2023-04-04T13:04:31.836Z,17.08
2023-04-04T13:09:35.753Z,16.94
2023-04-04T13:14:57.420Z,17.00
2023-04-04T13:19:59.168Z,17.27
2023-04-04T13:25:00.555Z,17.02
2023-04-04T13:30:02.557Z,17.14
2023-04-04T13:35:04.170Z,16.97
2023-04-04T13:40:06.006Z,16.95
2023-04-04T13:45:07.879Z,17.23
2023-04-04T13:50:09.307Z,17.12
2023-04-04T13:55:10.711Z,16.89
2023-04-04T14:00:12.996Z,16.92
2023-04-04T14:05:14.474Z,16.92
2023-04-04T14:10:16.784Z,17.16
2023-04-04T14:15:18.513Z,17.24
2023-04-04T14:20:20.991Z,16.81
2023-04-04T14:25:22.409Z,16.67
2023-04-04T14:30:23.903Z,16.83
2023-04-04T14:35:25.343Z,16.98
2023-04-04T14:40:28.417Z,17.08
2023-04-04T14:45:30.059Z,16.75
2023-04-04T14:50:31.474Z,16.69
2023-04-04T14:55:32.855Z,16.64
2023-04-04T15:00:34.568Z,16.52
2023-04-04T15:05:36.413Z,16.80
2023-04-04T15:10:37.919Z,17.20
2023-04-04T15:15:39.551Z,16.67
2023-04-04T15:20:41.179Z,16.68
2023-04-04T15:25:42.685Z,16.63
2023-04-04T15:30:44.081Z,16.82
2023-04-04T15:35:46.166Z,16.76
2023-04-04T15:40:47.548Z,16.57
2023-04-04T15:45:48.925Z,16.61
2023-04-04T15:50:50.682Z,16.59
2023-04-04T15:55:52.054Z,16.64
2023-04-04T16:00:53.648Z,16.83
2023-04-04T16:05:55.218Z,17.04
2023-04-04T16:10:59.700Z,16.57
2023-04-04T16:16:01.133Z,16.79
2023-04-04T16:21:05.610Z,16.70
2023-04-04T16:26:07.116Z,16.72
2023-04-04T16:31:08.564Z,16.82
2023-04-04T16:36:10.075Z,16.86
2023-04-04T16:41:11.448Z,16.92
2023-04-04T16:46:12.863Z,16.76
2023-04-04T16:51:14.257Z,16.81
2023-04-04T16:56:15.894Z,16.68
2023-04-04T17:01:20.497Z,16.74
2023-04-04T17:06:22.006Z,16.86
2023-04-04T17:11:23.431Z,16.83
2023-04-04T17:16:26.143Z,17.06
2023-04-04T17:21:27.576Z,16.92
2023-04-04T17:26:28.972Z,16.97
2023-04-04T17:31:30.884Z,17.19
2023-04-04T17:36:32.349Z,17.00
2023-04-04T17:41:33.867Z,17.06
2023-04-04T17:46:36.057Z,17.28
2023-04-04T17:51:37.742Z,17.29
2023-04-04T17:56:39.125Z,17.26
2023-04-04T18:01:40.615Z,17.30
2023-04-04T18:06:42.155Z,17.23
2023-04-04T18:11:43.797Z,17.31
2023-04-04T18:16:45.290Z,17.26
2023-04-04T18:21:48.148Z,17.50
2023-04-04T18:26:52.008Z,17.45
2023-04-04T18:31:53.406Z,17.50
2023-04-04T18:36:54.804Z,17.31
2023-04-04T18:41:56.538Z,17.63
2023-04-04T18:47:00.326Z,17.54
2023-04-04T18:52:01.745Z,17.50
2023-04-04T18:57:03.171Z,17.47
2023-04-04T19:02:04.587Z,17.44
2023-04-04T19:07:08.775Z,17.57
2023-04-04T19:12:10.207Z,17.57
2023-04-04T19:17:15.269Z,17.58
2023-04-04T19:22:16.778Z,17.52
2023-04-04T19:27:18.219Z,17.59
2023-04-04T19:32:19.655Z,17.74
2023-04-04T19:37:21.055Z,17.99
2023-04-04T19:42:26.572Z,17.85
2023-04-04T19:47:27.956Z,17.91
2023-04-04T19:52:29.396Z,17.66
2023-04-04T19:57:30.831Z,17.73
2023-04-04T20:02:36.080Z,17.85
2023-04-04T20:07:37.546Z,17.79
2023-04-04T20:12:38.969Z,17.83
2023-04-04T20:17:40.361Z,18.02
2023-04-04T20:22:41.779Z,18.13
2023-04-04T20:27:43.247Z,18.20
2023-04-04T20:32:44.644Z,18.04
2023-04-04T20:37:46.014Z,18.11
2023-04-04T20:42:47.721Z,17.86
2023-04-04T20:47:49.793Z,18.27
2023-04-04T20:52:53.092Z,18.36
2023-04-04T20:57:56.894Z,18.25
2023-04-04T21:03:07.189Z,18.27
2023-04-04T21:08:37.871Z,18.47
2023-04-04T21:13:40.580Z,18.61
2023-04-04T21:18:42.047Z,18.31
2023-04-04T21:23:50.425Z,18.57
2023-04-04T21:28:52.180Z,18.49
2023-04-04T21:33:54.217Z,18.68
2023-04-04T21:38:56.538Z,18.64
2023-04-04T21:43:59.257Z,18.53
2023-04-04T21:49:00.778Z,18.57
2023-04-04T21:54:02.415Z,18.99
2023-04-04T21:59:05.415Z,19.05
2023-04-04T22:04:06.844Z,18.96
2023-04-04T22:09:08.206Z,19.33
2023-04-04T22:14:09.618Z,19.07
2023-04-04T22:19:11.743Z,19.06
2023-04-04T22:24:13.731Z,19.00
2023-04-04T22:29:15.334Z,19.13
2023-04-04T22:34:16.749Z,19.41
2023-04-04T22:39:20.340Z,19.32
2023-04-04T22:44:21.727Z,19.25
2023-04-04T22:49:23.113Z,19.09
2023-04-04T22:54:24.494Z,19.49
2023-04-04T22:59:25.891Z,19.56
2023-04-04T23:04:27.817Z,19.50
2023-04-04T23:09:29.994Z,19.35
2023-04-04T23:14:31.410Z,19.40
2023-04-04T23:19:32.818Z,19.22
2023-04-04T23:24:34.235Z,19.57
2023-04-04T23:29:35.867Z,19.78
2023-04-04T23:34:37.255Z,19.47
2023-04-04T23:39:38.649Z,19.30
2023-04-04T23:44:40.269Z,19.39
2023-04-04T23:49:41.638Z,19.41
2023-04-04T23:54:43.046Z,19.54
2023-04-04T23:59:44.427Z,19.74
